sensor_id;sensor_type;location;lat;lon;timestamp;pressure;altitude;pressure_sealevel;temperature;humidity
6349;BME280;3207;42.648;23.406;2024-03-23T00:54:05;99746.38;;;13.71;67.22
6349;BME280;3207;42.648;23.406;2024-03-23T00:56:32;99746.63;;;13.68;67.38
6349;BME280;3207;42.648;23.406;2024-03-23T00:58:58;99740.03;;;13.64;67.73
6349;BME280;3207;42.648;23.406;2024-03-23T01:01:25;99745.28;;;13.64;67.98
6349;BME280;3207;42.648;23.406;2024-03-23T01:03:51;99739.59;;;13.59;67.86
6349;BME280;3207;42.648;23.406;2024-03-23T01:06:18;99739.84;;;13.56;67.99
6349;BME280;3207;42.648;23.406;2024-03-23T01:08:45;99739.19;;;13.54;68.54
6349;BME280;3207;42.648;23.406;2024-03-23T01:11:12;99744.69;;;13.51;68.67
6349;BME280;3207;42.648;23.406;2024-03-23T01:13:38;99739.72;;;13.48;68.77
6349;BME280;3207;42.648;23.406;2024-03-23T01:16:05;99731.84;;;13.48;68.96
6349;BME280;3207;42.648;23.406;2024-03-23T01:18:32;99731.13;;;13.46;69.49
6349;BME280;3207;42.648;23.406;2024-03-23T01:20:59;99709.59;;;13.33;69.19
6349;BME280;3207;42.648;23.406;2024-03-23T01:23:24;99725.47;;;13.41;69.45
6349;BME280;3207;42.648;23.406;2024-03-23T01:25:53;99722.41;;;13.36;69.49
6349;BME280;3207;42.648;23.406;2024-03-23T01:28:19;99720.09;;;13.33;69.86
6349;BME280;3207;42.648;23.406;2024-03-23T01:30:46;99720.78;;;13.35;70.05
6349;BME280;3207;42.648;23.406;2024-03-23T01:33:12;99726.44;;;13.30;70.15
6349;BME280;3207;42.648;23.406;2024-03-23T01:35:39;99721.31;;;13.29;70.18
6349;BME280;3207;42.648;23.406;2024-03-23T01:38:05;99726.16;;;13.24;70.02
6349;BME280;3207;42.648;23.406;2024-03-23T01:40:32;99704.31;;;13.23;70.39
6349;BME280;3207;42.648;23.406;2024-03-23T01:43:04;99708.75;;;13.23;70.24
6349;BME280;3207;42.648;23.406;2024-03-23T01:45:31;99702.78;;;13.21;70.36
6349;BME280;3207;42.648;23.406;2024-03-23T01:47:58;99706.38;;;13.19;70.16
6349;BME280;3207;42.648;23.406;2024-03-23T01:50:25;99706.66;;;13.16;70.71
6349;BME280;3207;42.648;23.406;2024-03-23T01:52:53;99703.06;;;13.17;71.03
6349;BME280;3207;42.648;23.406;2024-03-23T01:55:19;99673.88;;;13.01;70.70
6349;BME280;3207;42.648;23.406;2024-03-23T01:57:46;99689.50;;;13.12;71.29
6349;BME280;3207;42.648;23.406;2024-03-23T02:00:14;99684.38;;;13.11;71.30
6349;BME280;3207;42.648;23.406;2024-03-23T02:02:42;99675.53;;;13.02;70.92
6349;BME280;3207;42.648;23.406;2024-03-23T02:05:09;99678.31;;;13.10;71.16
6349;BME280;3207;42.648;23.406;2024-03-23T02:07:35;99676.25;;;13.14;71.10
6349;BME280;3207;42.648;23.406;2024-03-23T02:10:02;99666.97;;;13.10;71.15
6349;BME280;3207;42.648;23.406;2024-03-23T02:12:30;99667.53;;;13.13;70.78
6349;BME280;3207;42.648;23.406;2024-03-23T02:14:55;99667.53;;;13.13;70.56
6349;BME280;3207;42.648;23.406;2024-03-23T02:17:24;99664.22;;;13.11;71.02
6349;BME280;3207;42.648;23.406;2024-03-23T02:19:50;99667.94;;;13.09;70.85
6349;BME280;3207;42.648;23.406;2024-03-23T02:22:17;99657.69;;;13.06;70.87
6349;BME280;3207;42.648;23.406;2024-03-23T02:24:44;99658.78;;;13.03;70.97
6349;BME280;3207;42.648;23.406;2024-03-23T02:27:12;99639.59;;;12.93;70.88
6349;BME280;3207;42.648;23.406;2024-03-23T02:29:38;99651.47;;;12.97;71.23
6349;BME280;3207;42.648;23.406;2024-03-23T02:32:05;99647.31;;;12.95;71.68
6349;BME280;3207;42.648;23.406;2024-03-23T02:34:31;99627.69;;;12.79;71.10
6349;BME280;3207;42.648;23.406;2024-03-23T02:36:58;99642.75;;;12.87;71.99
6349;BME280;3207;42.648;23.406;2024-03-23T02:39:24;99619.81;;;12.70;71.75
6349;BME280;3207;42.648;23.406;2024-03-23T02:41:52;99649.22;;;12.83;72.05
6349;BME280;3207;42.648;23.406;2024-03-23T02:44:18;99645.66;;;12.84;72.59
6349;BME280;3207;42.648;23.406;2024-03-23T02:46:45;99651.31;;;12.79;72.63
6349;BME280;3207;42.648;23.406;2024-03-23T02:49:10;99640.94;;;12.78;73.02
6349;BME280;3207;42.648;23.406;2024-03-23T02:51:37;99638.47;;;12.76;72.87
6349;BME280;3207;42.648;23.406;2024-03-23T02:54:03;99628.09;;;12.75;73.33
6349;BME280;3207;42.648;23.406;2024-03-23T02:56:32;99625.72;;;12.72;73.38
6349;BME280;3207;42.648;23.406;2024-03-23T02:58:59;99625.72;;;12.72;73.17
6349;BME280;3207;42.648;23.406;2024-03-23T03:01:26;99622.28;;;12.71;73.98
6349;BME280;3207;42.648;23.406;2024-03-23T03:03:52;99625.19;;;12.68;73.90
6349;BME280;3207;42.648;23.406;2024-03-23T03:06:23;99625.19;;;12.68;74.20
6349;BME280;3207;42.648;23.406;2024-03-23T03:08:49;99616.06;;;12.63;73.64
6349;BME280;3207;42.648;23.406;2024-03-23T03:11:16;99617.72;;;12.64;73.91
6349;BME280;3207;42.648;23.406;2024-03-23T03:13:42;99618.97;;;12.60;74.71
6349;BME280;3207;42.648;23.406;2024-03-23T03:16:10;99619.91;;;12.59;74.35
6349;BME280;3207;42.648;23.406;2024-03-23T03:18:36;99602.91;;;12.53;74.09
6349;BME280;3207;42.648;23.406;2024-03-23T03:21:04;99600.16;;;12.55;74.40
6349;BME280;3207;42.648;23.406;2024-03-23T03:23:31;99603.38;;;12.58;74.42
6349;BME280;3207;42.648;23.406;2024-03-23T03:25:58;99597.16;;;12.59;74.43
6349;BME280;3207;42.648;23.406;2024-03-23T03:28:24;99579.75;;;12.49;75.08
6349;BME280;3207;42.648;23.406;2024-03-23T03:30:56;99600.88;;;12.57;74.61
6349;BME280;3207;42.648;23.406;2024-03-23T03:33:23;99598.13;;;12.58;74.83
6349;BME280;3207;42.648;23.406;2024-03-23T03:35:50;99588.03;;;12.54;74.86
6349;BME280;3207;42.648;23.406;2024-03-23T03:38:18;99596.47;;;12.57;74.45
6349;BME280;3207;42.648;23.406;2024-03-23T03:40:45;99591.09;;;12.59;74.12
6349;BME280;3207;42.648;23.406;2024-03-23T03:43:11;99595.38;;;12.60;74.29
6349;BME280;3207;42.648;23.406;2024-03-23T03:45:38;99597.81;;;12.61;74.55
6349;BME280;3207;42.648;23.406;2024-03-23T03:48:04;99584.03;;;12.59;74.69
6349;BME280;3207;42.648;23.406;2024-03-23T03:50:32;99581.25;;;12.61;74.66
6349;BME280;3207;42.648;23.406;2024-03-23T03:52:58;99586.50;;;12.61;74.45
6349;BME280;3207;42.648;23.406;2024-03-23T03:55:25;99566.22;;;12.53;74.44
6349;BME280;3207;42.648;23.406;2024-03-23T03:57:51;99587.50;;;12.60;74.48
6349;BME280;3207;42.648;23.406;2024-03-23T04:00:18;99575.34;;;12.59;74.98
6349;BME280;3207;42.648;23.406;2024-03-23T04:02:44;99574.22;;;12.61;74.24
6349;BME280;3207;42.648;23.406;2024-03-23T04:05:11;99576.31;;;12.58;74.69
6349;BME280;3207;42.648;23.406;2024-03-23T04:07:38;99571.91;;;12.58;74.78
6349;BME280;3207;42.648;23.406;2024-03-23T04:10:06;99573.94;;;12.55;74.37
6349;BME280;3207;42.648;23.406;2024-03-23T04:12:33;99571.78;;;12.60;74.70
6349;BME280;3207;42.648;23.406;2024-03-23T04:15:00;99562.91;;;12.61;74.89
6349;BME280;3207;42.648;23.406;2024-03-23T04:17:27;99569.81;;;12.62;74.87
6349;BME280;3207;42.648;23.406;2024-03-23T04:19:57;99573.28;;;12.62;74.36
6349;BME280;3207;42.648;23.406;2024-03-23T04:22:23;99552.00;;;12.46;74.22
6349;BME280;3207;42.648;23.406;2024-03-23T04:24:53;99576.00;;;12.61;74.29
6349;BME280;3207;42.648;23.406;2024-03-23T04:27:18;99571.78;;;12.60;74.21
6349;BME280;3207;42.648;23.406;2024-03-23T04:29:47;99569.16;;;12.60;73.89
6349;BME280;3207;42.648;23.406;2024-03-23T04:32:13;99572.72;;;12.59;74.19
6349;BME280;3207;42.648;23.406;2024-03-23T04:34:40;99572.84;;;12.57;73.90
6349;BME280;3207;42.648;23.406;2024-03-23T04:37:06;99555.56;;;12.45;73.99
6349;BME280;3207;42.648;23.406;2024-03-23T04:39:34;99495.06;;;12.08;74.22
6349;BME280;3207;42.648;23.406;2024-03-23T04:42:01;99568.84;;;12.53;74.50
6349;BME280;3207;42.648;23.406;2024-03-23T04:44:28;99550.31;;;12.35;74.60
6349;BME280;3207;42.648;23.406;2024-03-23T04:46:55;99572.84;;;12.48;74.57
6349;BME280;3207;42.648;23.406;2024-03-23T04:49:22;99573.81;;;12.46;74.46
6349;BME280;3207;42.648;23.406;2024-03-23T04:51:49;99565.09;;;12.46;74.39
6349;BME280;3207;42.648;23.406;2024-03-23T04:54:16;99560.53;;;12.38;74.49
6349;BME280;3207;42.648;23.406;2024-03-23T04:56:42;99552.94;;;12.35;74.86
6349;BME280;3207;42.648;23.406;2024-03-23T04:59:11;99556.38;;;12.36;74.69
6349;BME280;3207;42.648;23.406;2024-03-23T05:01:37;99562.72;;;12.33;74.92
6349;BME280;3207;42.648;23.406;2024-03-23T05:04:07;99556.91;;;12.30;74.70
6349;BME280;3207;42.648;23.406;2024-03-23T05:06:33;99555.28;;;12.29;74.36
6349;BME280;3207;42.648;23.406;2024-03-23T05:09:00;99553.63;;;12.28;74.61
6349;BME280;3207;42.648;23.406;2024-03-23T05:11:28;99551.81;;;12.28;74.59
6349;BME280;3207;42.648;23.406;2024-03-23T05:13:55;99557.72;;;12.30;74.62
6349;BME280;3207;42.648;23.406;2024-03-23T05:16:22;99552.78;;;12.27;74.81
6349;BME280;3207;42.648;23.406;2024-03-23T05:18:49;99553.63;;;12.28;74.81
6349;BME280;3207;42.648;23.406;2024-03-23T05:21:15;99546.72;;;12.27;75.33
6349;BME280;3207;42.648;23.406;2024-03-23T05:23:42;99545.88;;;12.26;75.29
6349;BME280;3207;42.648;23.406;2024-03-23T05:26:08;99547.81;;;12.24;74.87
6349;BME280;3207;42.648;23.406;2024-03-23T05:28:36;99545.88;;;12.26;74.99
6349;BME280;3207;42.648;23.406;2024-03-23T05:31:02;99546.41;;;12.30;75.28
6349;BME280;3207;42.648;23.406;2024-03-23T05:33:30;99540.91;;;12.33;75.25
6349;BME280;3207;42.648;23.406;2024-03-23T05:35:57;99545.78;;;12.37;74.95
6349;BME280;3207;42.648;23.406;2024-03-23T05:38:24;99546.19;;;12.42;74.77
6349;BME280;3207;42.648;23.406;2024-03-23T05:40:53;99542.59;;;12.43;74.82
6349;BME280;3207;42.648;23.406;2024-03-23T05:43:20;99543.88;;;12.49;74.96
6349;BME280;3207;42.648;23.406;2024-03-23T05:45:53;99543.75;;;12.70;75.30
6349;BME280;3207;42.648;23.406;2024-03-23T05:48:20;99521.41;;;12.85;74.60
6349;BME280;3207;42.648;23.406;2024-03-23T05:50:47;99544.28;;;13.60;73.77
6349;BME280;3207;42.648;23.406;2024-03-23T05:53:15;99540.88;;;15.22;67.50
6349;BME280;3207;42.648;23.406;2024-03-23T05:55:40;99531.00;;;17.02;59.73
6349;BME280;3207;42.648;23.406;2024-03-23T05:58:07;99531.38;;;18.73;53.30
6349;BME280;3207;42.648;23.406;2024-03-23T06:00:33;99541.09;;;20.23;48.66
6349;BME280;3207;42.648;23.406;2024-03-23T06:03:00;99548.22;;;21.58;44.01
6349;BME280;3207;42.648;23.406;2024-03-23T06:05:26;99544.78;;;22.81;40.58
6349;BME280;3207;42.648;23.406;2024-03-23T06:07:55;99544.56;;;23.94;37.54
6349;BME280;3207;42.648;23.406;2024-03-23T06:10:21;99553.44;;;24.97;35.31
6349;BME280;3207;42.648;23.406;2024-03-23T06:12:47;99544.88;;;25.88;33.13
6349;BME280;3207;42.648;23.406;2024-03-23T06:15:14;99556.50;;;26.85;31.73
6349;BME280;3207;42.648;23.406;2024-03-23T06:17:41;99555.31;;;27.64;30.02
6349;BME280;3207;42.648;23.406;2024-03-23T06:20:08;99551.22;;;28.48;28.35
6349;BME280;3207;42.648;23.406;2024-03-23T06:22:36;99556.81;;;29.32;26.99
6349;BME280;3207;42.648;23.406;2024-03-23T06:25:03;99553.09;;;30.05;26.20
6349;BME280;3207;42.648;23.406;2024-03-23T06:27:30;99558.97;;;30.94;25.31
6349;BME280;3207;42.648;23.406;2024-03-23T06:29:57;99554.28;;;31.75;23.86
6349;BME280;3207;42.648;23.406;2024-03-23T06:32:24;99552.50;;;32.48;23.15
6349;BME280;3207;42.648;23.406;2024-03-23T06:34:50;99556.97;;;33.15;22.11
6349;BME280;3207;42.648;23.406;2024-03-23T06:37:17;99572.16;;;33.62;21.16
6349;BME280;3207;42.648;23.406;2024-03-23T06:39:43;99561.31;;;33.41;20.77
6349;BME280;3207;42.648;23.406;2024-03-23T06:42:11;99564.81;;;33.83;20.80
6349;BME280;3207;42.648;23.406;2024-03-23T06:44:37;99564.13;;;34.41;20.27
6349;BME280;3207;42.648;23.406;2024-03-23T06:47:04;99571.28;;;34.66;19.32
6349;BME280;3207;42.648;23.406;2024-03-23T06:49:30;99564.09;;;34.96;19.11
6349;BME280;3207;42.648;23.406;2024-03-23T06:51:57;99558.91;;;35.33;19.21
6349;BME280;3207;42.648;23.406;2024-03-23T06:54:24;99554.69;;;35.80;18.46
6349;BME280;3207;42.648;23.406;2024-03-23T06:56:51;99556.63;;;36.27;17.93
6349;BME280;3207;42.648;23.406;2024-03-23T06:59:18;99558.28;;;37.03;17.35
6349;BME280;3207;42.648;23.406;2024-03-23T07:01:45;99560.91;;;37.59;17.28
6349;BME280;3207;42.648;23.406;2024-03-23T07:04:11;99556.63;;;37.53;16.82
6349;BME280;3207;42.648;23.406;2024-03-23T07:06:42;99558.56;;;38.13;16.69
6349;BME280;3207;42.648;23.406;2024-03-23T07:09:09;99556.09;;;38.66;16.33
6349;BME280;3207;42.648;23.406;2024-03-23T07:11:36;99543.59;;;39.09;16.43
6349;BME280;3207;42.648;23.406;2024-03-23T07:14:02;99540.97;;;39.49;15.46
6349;BME280;3207;42.648;23.406;2024-03-23T07:16:30;99546.06;;;40.21;15.25
6349;BME280;3207;42.648;23.406;2024-03-23T07:18:57;99545.50;;;40.58;15.23
6349;BME280;3207;42.648;23.406;2024-03-23T07:21:24;99476.66;;;40.77;14.64
6349;BME280;3207;42.648;23.406;2024-03-23T07:23:50;99542.28;;;41.81;13.86
6349;BME280;3207;42.648;23.406;2024-03-23T07:26:17;99524.97;;;41.34;14.61
6349;BME280;3207;42.648;23.406;2024-03-23T07:28:44;99530.03;;;40.63;14.57
6349;BME280;3207;42.648;23.406;2024-03-23T07:31:12;99529.50;;;40.26;15.26
6349;BME280;3207;42.648;23.406;2024-03-23T07:33:45;99527.81;;;40.08;14.90
6349;BME280;3207;42.648;23.406;2024-03-23T07:36:12;99538.09;;;40.68;15.03
6349;BME280;3207;42.648;23.406;2024-03-23T07:38:40;99526.50;;;41.69;13.51
6349;BME280;3207;42.648;23.406;2024-03-23T07:41:08;99529.19;;;41.40;13.55
6349;BME280;3207;42.648;23.406;2024-03-23T07:43:34;99524.34;;;40.24;14.64
6349;BME280;3207;42.648;23.406;2024-03-23T07:46:02;99510.31;;;38.94;15.61
6349;BME280;3207;42.648;23.406;2024-03-23T07:48:29;99516.38;;;37.31;16.63
6349;BME280;3207;42.648;23.406;2024-03-23T07:51:02;99510.75;;;35.91;17.63
6349;BME280;3207;42.648;23.406;2024-03-23T07:53:28;99500.25;;;34.49;18.70
6349;BME280;3207;42.648;23.406;2024-03-23T07:55:58;99496.00;;;32.87;20.15
6349;BME280;3207;42.648;23.406;2024-03-23T07:58:24;99487.50;;;31.76;21.37
6349;BME280;3207;42.648;23.406;2024-03-23T08:00:52;99471.47;;;30.36;22.63
6349;BME280;3207;42.648;23.406;2024-03-23T08:03:18;99479.66;;;29.59;23.55
6349;BME280;3207;42.648;23.406;2024-03-23T08:05:45;99481.78;;;29.07;24.68
6349;BME280;3207;42.648;23.406;2024-03-23T08:08:12;99477.69;;;28.42;25.22
6349;BME280;3207;42.648;23.406;2024-03-23T08:10:48;99471.41;;;27.97;25.68
6349;BME280;3207;42.648;23.406;2024-03-23T08:13:13;99468.41;;;27.70;26.29
6349;BME280;3207;42.648;23.406;2024-03-23T08:15:40;99461.81;;;27.89;26.18
6349;BME280;3207;42.648;23.406;2024-03-23T08:18:07;99460.63;;;28.65;25.19
6349;BME280;3207;42.648;23.406;2024-03-23T08:20:34;99462.22;;;29.45;24.36
6349;BME280;3207;42.648;23.406;2024-03-23T08:22:59;99463.22;;;30.48;23.34
6349;BME280;3207;42.648;23.406;2024-03-23T08:25:30;99468.75;;;32.16;21.56
6349;BME280;3207;42.648;23.406;2024-03-23T08:27:58;99474.25;;;33.68;20.03
6349;BME280;3207;42.648;23.406;2024-03-23T08:30:23;99466.84;;;33.94;19.76
6349;BME280;3207;42.648;23.406;2024-03-23T08:32:50;99465.97;;;34.58;19.54
6349;BME280;3207;42.648;23.406;2024-03-23T08:35:16;99468.53;;;35.94;18.21
6349;BME280;3207;42.648;23.406;2024-03-23T08:37:43;99467.56;;;36.46;17.95
6349;BME280;3207;42.648;23.406;2024-03-23T08:40:10;99470.34;;;36.97;16.96
6349;BME280;3207;42.648;23.406;2024-03-23T08:42:38;99472.41;;;37.93;16.67
6349;BME280;3207;42.648;23.406;2024-03-23T08:45:05;99467.00;;;38.65;16.15
6349;BME280;3207;42.648;23.406;2024-03-23T08:47:34;99467.31;;;39.78;15.10
6349;BME280;3207;42.648;23.406;2024-03-23T08:50:00;99473.25;;;41.61;14.29
6349;BME280;3207;42.648;23.406;2024-03-23T08:52:27;99472.44;;;42.61;13.12
6349;BME280;3207;42.648;23.406;2024-03-23T08:54:55;99457.97;;;39.79;14.62
6349;BME280;3207;42.648;23.406;2024-03-23T08:57:22;99449.94;;;38.09;16.17
6349;BME280;3207;42.648;23.406;2024-03-23T08:59:50;99443.28;;;37.74;16.40
6349;BME280;3207;42.648;23.406;2024-03-23T09:02:17;99437.84;;;37.15;16.96
6349;BME280;3207;42.648;23.406;2024-03-23T09:04:44;99422.06;;;36.47;17.35
6349;BME280;3207;42.648;23.406;2024-03-23T09:07:11;99416.97;;;35.36;17.92
6349;BME280;3207;42.648;23.406;2024-03-23T09:09:38;99417.63;;;34.60;18.18
6349;BME280;3207;42.648;23.406;2024-03-23T09:12:05;99408.84;;;33.80;18.85
6349;BME280;3207;42.648;23.406;2024-03-23T09:14:31;99406.28;;;33.19;19.29
6349;BME280;3207;42.648;23.406;2024-03-23T09:17:00;99403.91;;;32.87;19.57
6349;BME280;3207;42.648;23.406;2024-03-23T09:19:27;99394.25;;;31.78;20.12
6349;BME280;3207;42.648;23.406;2024-03-23T09:21:54;99388.81;;;31.26;20.32
6349;BME280;3207;42.648;23.406;2024-03-23T09:24:20;99359.66;;;31.28;20.75
6349;BME280;3207;42.648;23.406;2024-03-23T09:26:47;99393.59;;;31.56;20.24
6349;BME280;3207;42.648;23.406;2024-03-23T09:29:13;99391.09;;;31.02;20.75
6349;BME280;3207;42.648;23.406;2024-03-23T09:31:40;99381.31;;;30.32;21.05
6349;BME280;3207;42.648;23.406;2024-03-23T09:34:09;99370.66;;;29.94;21.37
6349;BME280;3207;42.648;23.406;2024-03-23T09:36:36;99361.06;;;29.54;21.90
6349;BME280;3207;42.648;23.406;2024-03-23T09:39:03;99368.47;;;29.91;21.52
6349;BME280;3207;42.648;23.406;2024-03-23T09:41:31;99362.09;;;29.97;21.54
6349;BME280;3207;42.648;23.406;2024-03-23T09:43:57;99368.06;;;29.55;22.19
6349;BME280;3207;42.648;23.406;2024-03-23T09:46:24;99343.75;;;29.50;22.56
6349;BME280;3207;42.648;23.406;2024-03-23T09:48:50;99333.53;;;29.52;22.69
6349;BME280;3207;42.648;23.406;2024-03-23T09:51:19;99199.81;;;30.84;20.91
6349;BME280;3207;42.648;23.406;2024-03-23T09:53:44;99328.56;;;33.09;18.87
6349;BME280;3207;42.648;23.406;2024-03-23T09:56:11;99341.59;;;33.02;19.03
6349;BME280;3207;42.648;23.406;2024-03-23T09:58:37;99342.16;;;32.69;19.29
6349;BME280;3207;42.648;23.406;2024-03-23T10:01:04;99338.09;;;32.66;19.60
6349;BME280;3207;42.648;23.406;2024-03-23T10:03:31;99342.97;;;32.59;19.68
6349;BME280;3207;42.648;23.406;2024-03-23T10:06:01;99336.13;;;33.87;18.51
6349;BME280;3207;42.648;23.406;2024-03-23T10:08:29;99328.66;;;34.81;17.77
6349;BME280;3207;42.648;23.406;2024-03-23T10:10:56;99315.41;;;35.46;17.08
6349;BME280;3207;42.648;23.406;2024-03-23T10:13:26;99326.91;;;36.18;16.96
6349;BME280;3207;42.648;23.406;2024-03-23T10:15:57;99322.63;;;37.36;15.71
6349;BME280;3207;42.648;23.406;2024-03-23T10:18:23;99312.28;;;35.95;16.58
6349;BME280;3207;42.648;23.406;2024-03-23T10:20:52;99311.91;;;34.40;17.71
6349;BME280;3207;42.648;23.406;2024-03-23T10:23:18;99303.94;;;33.75;18.31
6349;BME280;3207;42.648;23.406;2024-03-23T10:25:46;99288.56;;;32.76;18.97
6349;BME280;3207;42.648;23.406;2024-03-23T10:28:12;99290.19;;;31.96;19.76
6349;BME280;3207;42.648;23.406;2024-03-23T10:30:39;99291.19;;;31.02;20.75
6349;BME280;3207;42.648;23.406;2024-03-23T10:33:08;99284.00;;;30.07;21.48
6349;BME280;3207;42.648;23.406;2024-03-23T10:35:36;99283.69;;;29.76;21.62
6349;BME280;3207;42.648;23.406;2024-03-23T10:38:05;99285.09;;;28.92;21.90
6349;BME280;3207;42.648;23.406;2024-03-23T10:40:34;99283.56;;;28.29;22.83
6349;BME280;3207;42.648;23.406;2024-03-23T10:43:03;99267.25;;;27.05;23.70
6349;BME280;3207;42.648;23.406;2024-03-23T10:45:30;99256.41;;;26.88;24.22
6349;BME280;3207;42.648;23.406;2024-03-23T10:47:56;99251.03;;;26.88;24.44
6349;BME280;3207;42.648;23.406;2024-03-23T10:50:23;99246.63;;;26.59;25.13
6349;BME280;3207;42.648;23.406;2024-03-23T10:52:49;99254.09;;;26.34;25.56
6349;BME280;3207;42.648;23.406;2024-03-23T10:55:18;99245.06;;;26.05;25.58
6349;BME280;3207;42.648;23.406;2024-03-23T10:57:49;99236.00;;;25.76;26.04
6349;BME280;3207;42.648;23.406;2024-03-23T11:00:19;99229.59;;;25.47;26.05
6349;BME280;3207;42.648;23.406;2024-03-23T11:02:47;99227.47;;;25.67;26.30
6349;BME280;3207;42.648;23.406;2024-03-23T11:05:30;99219.56;;;25.61;26.71
6349;BME280;3207;42.648;23.406;2024-03-23T11:07:57;99216.66;;;25.62;26.59
6349;BME280;3207;42.648;23.406;2024-03-23T11:10:26;99207.81;;;25.43;26.35
6349;BME280;3207;42.648;23.406;2024-03-23T11:12:52;99199.78;;;25.43;26.84
6349;BME280;3207;42.648;23.406;2024-03-23T11:15:20;99202.50;;;25.55;26.76
6349;BME280;3207;42.648;23.406;2024-03-23T11:18:02;99196.19;;;25.68;26.63
6349;BME280;3207;42.648;23.406;2024-03-23T11:20:31;99194.66;;;25.60;26.82
6349;BME280;3207;42.648;23.406;2024-03-23T11:22:57;99197.47;;;25.47;26.89
6349;BME280;3207;42.648;23.406;2024-03-23T11:25:25;99183.00;;;25.36;27.09
6349;BME280;3207;42.648;23.406;2024-03-23T11:27:52;99186.44;;;25.55;27.44
6349;BME280;3207;42.648;23.406;2024-03-23T11:30:22;99179.22;;;25.74;27.25
6349;BME280;3207;42.648;23.406;2024-03-23T11:32:49;99168.38;;;25.80;27.29
6349;BME280;3207;42.648;23.406;2024-03-23T11:35:29;99178.53;;;26.13;27.17
6349;BME280;3207;42.648;23.406;2024-03-23T11:38:03;99162.84;;;26.29;26.36
6349;BME280;3207;42.648;23.406;2024-03-23T11:40:31;99159.91;;;26.42;26.49
6349;BME280;3207;42.648;23.406;2024-03-23T11:42:58;99158.88;;;26.43;26.34
6349;BME280;3207;42.648;23.406;2024-03-23T11:45:27;99149.41;;;26.52;26.10
6349;BME280;3207;42.648;23.406;2024-03-23T11:48:04;99150.19;;;26.76;26.33
6349;BME280;3207;42.648;23.406;2024-03-23T11:50:32;99138.28;;;27.40;25.76
6349;BME280;3207;42.648;23.406;2024-03-23T11:53:13;99146.56;;;27.84;25.11
6349;BME280;3207;42.648;23.406;2024-03-23T11:55:46;99143.94;;;27.55;24.84
6349;BME280;3207;42.648;23.406;2024-03-23T11:58:12;99162.56;;;27.17;24.88
6349;BME280;3207;42.648;23.406;2024-03-23T12:00:41;99116.00;;;26.71;25.30
6349;BME280;3207;42.648;23.406;2024-03-23T12:03:07;99122.75;;;26.45;25.61
6349;BME280;3207;42.648;23.406;2024-03-23T12:05:36;99120.50;;;26.54;25.73
6349;BME280;3207;42.648;23.406;2024-03-23T12:08:22;99120.81;;;26.69;26.01
6349;BME280;3207;42.648;23.406;2024-03-23T12:10:50;99119.25;;;26.85;25.78
6349;BME280;3207;42.648;23.406;2024-03-23T12:13:18;99118.13;;;27.09;25.57
6349;BME280;3207;42.648;23.406;2024-03-23T12:15:48;99112.59;;;27.16;25.62
6349;BME280;3207;42.648;23.406;2024-03-23T12:18:14;99103.97;;;27.14;25.48
6349;BME280;3207;42.648;23.406;2024-03-23T12:20:41;99107.59;;;27.19;25.23
6349;BME280;3207;42.648;23.406;2024-03-23T12:23:09;99105.59;;;26.86;25.39
6349;BME280;3207;42.648;23.406;2024-03-23T12:25:37;99092.66;;;26.83;25.72
6349;BME280;3207;42.648;23.406;2024-03-23T12:28:04;99032.22;;;26.24;25.86
6349;BME280;3207;42.648;23.406;2024-03-23T12:30:33;99083.88;;;26.59;25.57
6349;BME280;3207;42.648;23.406;2024-03-23T12:33:01;99072.63;;;26.74;26.10
6349;BME280;3207;42.648;23.406;2024-03-23T12:35:28;99081.63;;;26.28;26.10
6349;BME280;3207;42.648;23.406;2024-03-23T12:37:54;99074.97;;;26.19;26.51
6349;BME280;3207;42.648;23.406;2024-03-23T12:40:21;99054.72;;;26.11;26.62
6349;BME280;3207;42.648;23.406;2024-03-23T12:42:47;99066.00;;;26.37;26.41
6349;BME280;3207;42.648;23.406;2024-03-23T12:45:14;99079.53;;;26.30;26.29
6349;BME280;3207;42.648;23.406;2024-03-23T12:47:40;99067.97;;;26.18;26.92
6349;BME280;3207;42.648;23.406;2024-03-23T12:50:09;99060.19;;;26.16;27.82
6349;BME280;3207;42.648;23.406;2024-03-23T12:52:35;99055.28;;;26.25;27.03
6349;BME280;3207;42.648;23.406;2024-03-23T12:55:02;99064.16;;;26.02;26.62
6349;BME280;3207;42.648;23.406;2024-03-23T12:57:30;99045.50;;;26.07;26.87
6349;BME280;3207;42.648;23.406;2024-03-23T12:59:57;99044.00;;;26.00;27.10
6349;BME280;3207;42.648;23.406;2024-03-23T13:02:23;99044.81;;;26.00;27.46
6349;BME280;3207;42.648;23.406;2024-03-23T13:04:50;99051.44;;;26.09;26.79
6349;BME280;3207;42.648;23.406;2024-03-23T13:07:19;99026.53;;;26.09;27.28
6349;BME280;3207;42.648;23.406;2024-03-23T13:09:46;99040.97;;;25.96;27.74
6349;BME280;3207;42.648;23.406;2024-03-23T13:12:12;99043.34;;;25.81;27.80
6349;BME280;3207;42.648;23.406;2024-03-23T13:14:39;98971.59;;;25.25;28.05
6349;BME280;3207;42.648;23.406;2024-03-23T13:17:05;99032.59;;;25.58;28.42
6349;BME280;3207;42.648;23.406;2024-03-23T13:19:33;99027.41;;;25.63;28.42
6349;BME280;3207;42.648;23.406;2024-03-23T13:21:59;99037.25;;;25.50;29.04
6349;BME280;3207;42.648;23.406;2024-03-23T13:24:28;99026.41;;;25.45;28.97
6349;BME280;3207;42.648;23.406;2024-03-23T13:26:54;99019.91;;;25.41;29.17
6349;BME280;3207;42.648;23.406;2024-03-23T13:29:22;99033.53;;;25.40;30.42
6349;BME280;3207;42.648;23.406;2024-03-23T13:31:49;99029.56;;;25.54;29.95
6349;BME280;3207;42.648;23.406;2024-03-23T13:34:17;99021.56;;;25.66;29.62
6349;BME280;3207;42.648;23.406;2024-03-23T13:36:44;99008.06;;;25.72;29.82
6349;BME280;3207;42.648;23.406;2024-03-23T13:39:11;99008.97;;;25.89;30.18
6349;BME280;3207;42.648;23.406;2024-03-23T13:41:40;99008.97;;;25.89;30.02
6349;BME280;3207;42.648;23.406;2024-03-23T13:44:08;99005.47;;;25.89;29.80
6349;BME280;3207;42.648;23.406;2024-03-23T13:46:39;99013.53;;;25.66;29.82
6349;BME280;3207;42.648;23.406;2024-03-23T13:49:28;98998.00;;;25.33;30.25
6349;BME280;3207;42.648;23.406;2024-03-23T13:51:54;99009.53;;;25.33;30.24
6349;BME280;3207;42.648;23.406;2024-03-23T13:54:23;99008.16;;;24.89;30.28
6349;BME280;3207;42.648;23.406;2024-03-23T13:56:51;98992.81;;;24.55;31.15
6349;BME280;3207;42.648;23.406;2024-03-23T13:59:20;98993.31;;;24.63;31.33
6349;BME280;3207;42.648;23.406;2024-03-23T14:01:46;98994.72;;;24.66;30.97
6349;BME280;3207;42.648;23.406;2024-03-23T14:04:13;98994.22;;;24.57;31.41